Time,TemperatureF,DewpointF,PressureIn,WindDirection,WindDirectionDegrees,WindSpeedMPH,WindSpeedGustMPH,Humidity,HourlyPrecipIn,Conditions,Clouds,dailyrainin,SolarRadiationWatts/m^2,SoftwareType,DateUTC
2013-04-20 00:00:00,42.0,31.0,29.80,West,263,7.0,-999.0,65,-99.99,,,-99.99,0.010000,,2013-04-20 04:00:00,
2013-04-20 00:53:00,42.0,31.0,29.80,West,263,7.0,-999.0,65,-99.99,,,-99.99,0.010000,,2013-04-20 04:53:00,
2013-04-20 04:00:00,40.0,29.0,29.79,WSW,237,6.0,-999.0,65,-99.99,,,-99.99,0.030000,,2013-04-20 08:00:00,
2013-04-20 04:52:00,40.0,29.0,29.79,WSW,237,6.0,-999.0,65,-99.99,,,-99.99,0.030000,,2013-04-20 08:52:00,
2013-04-20 05:00:00,41.0,29.0,29.80,SW,226,6.0,-999.0,62,-99.99,,,-99.99,0.020000,,2013-04-20 09:00:00,
2013-04-20 05:53:00,41.0,29.0,29.80,SW,226,6.0,-999.0,62,-99.99,,,-99.99,0.020000,,2013-04-20 09:53:00,
2013-04-20 06:00:00,39.0,28.0,29.83,WSW,246,7.0,-999.0,64,-99.99,,,-99.99,0.030000,,2013-04-20 10:00:00,
2013-04-20 06:53:00,39.0,28.0,29.83,WSW,246,7.0,-999.0,64,-99.99,,,-99.99,0.030000,,2013-04-20 10:53:00,
2013-04-20 07:00:00,39.0,27.0,29.84,SW,235,9.0,-999.0,62,-99.99,,,-99.99,19.260000,,2013-04-20 11:00:00,
2013-04-20 07:53:00,39.0,27.0,29.84,SW,235,9.0,-999.0,62,-99.99,,,-99.99,19.260000,,2013-04-20 11:53:00,
2013-04-20 08:00:00,41.0,28.0,29.87,SW,235,9.0,-999.0,60,-99.99,,,-99.99,183.300003,,2013-04-20 12:00:00,
2013-04-20 08:52:00,41.0,28.0,29.87,SW,235,9.0,-999.0,60,-99.99,,,-99.99,183.300003,,2013-04-20 12:52:00,
2013-04-20 09:00:00,42.0,27.0,29.88,WSW,243,11.0,-999.0,55,-99.99,,,-99.99,364.899994,,2013-04-20 13:00:00,
2013-04-20 09:52:00,42.0,27.0,29.88,WSW,243,11.0,-999.0,55,-99.99,,,-99.99,364.899994,,2013-04-20 13:52:00,
2013-04-20 10:00:00,39.0,29.0,29.93,WSW,251,12.0,-999.0,68,-99.99,,,-99.99,299.399994,,2013-04-20 14:00:00,
2013-04-20 10:52:00,39.0,29.0,29.93,WSW,251,12.0,-999.0,68,-99.99,,,-99.99,299.399994,,2013-04-20 14:52:00,
2013-04-20 11:00:00,41.0,25.0,29.96,WSW,258,13.0,-999.0,53,-99.99,,,-99.99,583.799988,,2013-04-20 15:00:00,
2013-04-20 11:53:00,41.0,25.0,29.96,WSW,258,13.0,-999.0,53,-99.99,,,-99.99,583.799988,,2013-04-20 15:53:00,
2013-04-20 12:00:00,43.0,24.0,29.99,WSW,251,14.0,-999.0,46,-99.99,,,-99.99,609.400024,,2013-04-20 16:00:00,
2013-04-20 13:00:00,41.0,23.0,30.03,WSW,255,15.0,-999.0,49,-99.99,,,-99.99,372.600006,,2013-04-20 17:00:00,
2013-04-20 13:52:00,41.0,23.0,30.03,WSW,255,15.0,-999.0,49,-99.99,,,-99.99,372.600006,,2013-04-20 17:52:00,
2013-04-20 14:00:00,40.0,22.0,30.06,West,263,14.0,-999.0,49,-99.99,,,-99.99,469.399994,,2013-04-20 18:00:00,
2013-04-20 14:53:00,40.0,22.0,30.06,West,263,14.0,-999.0,49,-99.99,,,-99.99,469.399994,,2013-04-20 18:53:00,
2013-04-20 15:00:00,39.0,21.0,30.10,West,259,14.0,-999.0,48,-99.99,,,-99.99,438.600006,,2013-04-20 19:00:00,
2013-04-20 15:52:00,39.0,21.0,30.10,West,259,14.0,-999.0,48,-99.99,,,-99.99,438.600006,,2013-04-20 19:52:00,
2013-04-20 16:00:00,39.0,20.0,30.13,West,262,13.0,-999.0,46,-99.99,,,-99.99,327.799988,,2013-04-20 20:00:00,
2013-04-20 16:52:00,39.0,20.0,30.13,West,262,13.0,-999.0,46,-99.99,,,-99.99,327.799988,,2013-04-20 20:52:00,
2013-04-20 17:00:00,38.0,21.0,30.17,West,264,14.0,-999.0,50,-99.99,,,-99.99,266.799988,,2013-04-20 21:00:00,
2013-04-20 17:53:00,38.0,21.0,30.17,West,264,14.0,-999.0,50,-99.99,,,-99.99,266.799988,,2013-04-20 21:53:00,
2013-04-20 18:00:00,37.0,21.0,30.20,West,265,13.0,-999.0,52,-99.99,,,-99.99,196.399994,,2013-04-20 22:00:00,
2013-04-20 18:53:00,37.0,21.0,30.20,West,265,13.0,-999.0,52,-99.99,,,-99.99,196.399994,,2013-04-20 22:53:00,
2013-04-20 19:00:00,35.0,22.0,30.25,West,271,11.0,-999.0,57,-99.99,,,-99.99,89.199997,,2013-04-20 23:00:00,
2013-04-20 19:53:00,35.0,22.0,30.25,West,271,11.0,-999.0,57,-99.99,,,-99.99,89.199997,,2013-04-20 23:53:00,
2013-04-20 20:00:00,34.0,24.0,30.28,West,265,11.0,-999.0,64,-99.99,,,-99.99,12.960000,,2013-04-21 00:00:00,
2013-04-20 20:52:00,34.0,24.0,30.28,West,265,11.0,-999.0,64,-99.99,,,-99.99,12.960000,,2013-04-21 00:52:00,
2013-04-20 21:00:00,34.0,25.0,30.32,WSW,257,6.0,-999.0,69,-99.99,,,-99.99,0.280000,,2013-04-21 01:00:00,
2013-04-20 21:52:00,34.0,25.0,30.32,WSW,257,6.0,-999.0,69,-99.99,,,-99.99,0.280000,,2013-04-21 01:52:00,
2013-04-20 22:00:00,33.0,26.0,30.36,West,265,7.0,-999.0,76,-99.99,,,-99.99,0.040000,,2013-04-21 02:00:00,
2013-04-20 22:52:00,33.0,26.0,30.36,West,265,7.0,-999.0,76,-99.99,,,-99.99,0.040000,,2013-04-21 02:52:00,
2013-04-20 23:00:00,32.0,25.0,30.37,West,272,6.0,-999.0,78,-99.99,,,-99.99,0.060000,,2013-04-21 03:00:00,
2013-04-20 23:53:00,32.0,25.0,30.37,West,272,6.0,-999.0,78,-99.99,,,-99.99,0.060000,,2013-04-21 03:53:00,